Time;durP1;ratioP1;P1;durP2;ratioP2;P2;SDS_P1;SDS_P2;PMS_P1;PMS_P2;Temp;Humidity;BMP_temperature;BMP_pressure;BME280_temperature;BME280_humidity;BME280_pressure;Samples;Min_cycle;Max_cycle;Signal;HPM_P1;HPM_P2
2021/12/21 00:00:13;;;;;;;10.60;6.90;;;-2.90;99.90;;;;;;4838504;29;20416;-79
2021/12/21 00:02:40;;;;;;;10.43;5.68;;;-2.90;99.90;;;;;;4842385;29;20053;-79
2021/12/21 00:05:08;;;;;;;7.75;4.70;;;-2.90;99.90;;;;;;4839029;29;20469;-79
2021/12/21 00:07:33;;;;;;;7.32;4.10;;;-2.90;99.90;;;;;;4843838;29;20082;-79
2021/12/21 00:09:59;;;;;;;6.15;4.20;;;-2.90;99.90;;;;;;4830157;29;20049;-79
2021/12/21 00:12:28;;;;;;;8.60;4.35;;;-2.90;99.90;;;;;;4845101;29;20041;-79
2021/12/21 00:15:04;;;;;;;7.80;4.30;;;-3.00;99.90;;;;;;4830412;29;20056;-79
2021/12/21 00:17:50;;;;;;;7.45;4.15;;;-2.90;99.90;;;;;;4831395;29;20050;-79
2021/12/21 00:25:23;;;;;;;8.25;5.15;;;-2.90;99.90;;;;;;4841074;29;20085;-79
2021/12/21 00:27:51;;;;;;;10.40;5.70;;;-3.00;99.90;;;;;;4844892;29;20387;-79
2021/12/21 00:30:18;;;;;;;11.40;5.75;;;-3.00;99.90;;;;;;4829869;29;20045;-79
2021/12/21 00:32:45;;;;;;;9.80;5.65;;;-3.00;99.90;;;;;;4857550;29;20120;-79
2021/12/21 00:35:11;;;;;;;9.50;5.90;;;-3.00;99.90;;;;;;4850307;29;20046;-79
2021/12/21 00:37:40;;;;;;;;;;;-3.00;99.90;;;;;;4844811;29;20044;-79
2021/12/21 00:40:08;;;;;;;7.82;4.60;;;-3.10;99.90;;;;;;4826792;29;19920;-79
2021/12/21 00:42:34;;;;;;;6.28;3.88;;;-3.00;99.90;;;;;;4841848;29;20403;-79
2021/12/21 00:44:59;;;;;;;5.65;3.40;;;-3.10;99.90;;;;;;4830084;29;20041;-79
2021/12/21 00:47:25;;;;;;;6.03;3.55;;;-3.10;99.90;;;;;;4860308;29;20115;-79
2021/12/21 00:50:00;;;;;;;8.07;3.92;;;-3.10;99.90;;;;;;4860155;29;20049;-79
2021/12/21 00:52:27;;;;;;;7.22;4.35;;;-3.10;99.90;;;;;;4834910;29;20057;-79
2021/12/21 00:54:53;;;;;;;7.65;4.28;;;-3.20;99.90;;;;;;4829971;29;20046;-79
2021/12/21 00:57:19;;;;;;;6.68;3.83;;;-3.10;99.90;;;;;;4844100;29;20128;-79
2021/12/21 00:59:45;;;;;;;9.00;5.00;;;-3.20;99.90;;;;;;4816666;29;20118;-79
2021/12/21 01:02:11;;;;;;;10.30;5.65;;;-3.20;99.90;;;;;;4840480;29;20045;-79
2021/12/21 01:04:42;;;;;;;10.73;5.65;;;-3.20;99.90;;;;;;4844040;29;20072;-79
2021/12/21 01:15:17;;;;;;;7.63;4.45;;;-3.20;99.90;;;;;;4838234;29;20521;-79
2021/12/21 01:18:33;;;;;;;8.35;4.65;;;-3.20;99.90;;;;;;4831428;29;20072;-79
2021/12/21 01:20:48;;;;;;;8.77;5.03;;;-3.30;99.90;;;;;;4822457;29;20528;-78
2021/12/21 01:26:07;;;;;;;8.32;4.68;;;-3.30;99.90;;;;;;4839317;29;20075;-79
2021/12/21 01:28:47;;;;;;;9.10;4.20;;;-3.30;99.90;;;;;;4819884;29;20476;-79
2021/12/21 01:36:51;;;;;;;6.65;4.05;;;-3.30;99.90;;;;;;4855727;29;20068;-79
2021/12/21 01:42:02;;;;;;;7.80;4.05;;;-3.40;99.90;;;;;;4827330;29;20046;-78
2021/12/21 01:49:49;;;;;;;7.45;4.20;;;-3.30;99.90;;;;;;4850138;29;20072;-79
2021/12/21 01:52:19;;;;;;;6.55;3.90;;;-3.40;99.90;;;;;;4828789;29;20056;-79
2021/12/21 01:54:46;;;;;;;7.30;3.35;;;-3.40;99.90;;;;;;4828597;29;20046;-79
2021/12/21 01:57:13;;;;;;;11.45;4.25;;;-3.40;99.90;;;;;;4819590;29;20045;-79
2021/12/21 01:59:41;;;;;;;12.10;6.13;;;-3.40;99.90;;;;;;4842925;29;20042;-79
2021/12/21 02:02:09;;;;;;;9.95;4.30;;;-3.40;99.90;;;;;;4819340;29;20038;-79
2021/12/21 02:04:39;;;;;;;10.45;5.07;;;-3.40;99.90;;;;;;4838728;29;20046;-79
2021/12/21 02:07:06;;;;;;;12.88;5.93;;;-3.40;99.90;;;;;;4840407;29;20755;-79
2021/12/21 02:09:38;;;;;;;11.68;5.82;;;-3.40;99.90;;;;;;4809369;29;20054;-79
2021/12/21 02:12:07;;;;;;;11.70;5.60;;;-3.40;99.90;;;;;;4824993;29;20102;-79
2021/12/21 02:14:38;;;;;;;11.25;5.65;;;-3.40;99.90;;;;;;4825403;29;20468;-79
2021/12/21 02:17:36;;;;;;;12.32;6.00;;;-3.50;99.90;;;;;;4825236;29;20048;-79
2021/12/21 02:20:11;;;;;;;12.63;5.82;;;-3.50;99.90;;;;;;4821836;29;20115;-79
2021/12/21 02:22:43;;;;;;;10.25;5.60;;;-3.50;99.90;;;;;;4822208;29;20095;-79
2021/12/21 02:28:09;;;;;;;11.40;5.22;;;-3.50;99.90;;;;;;4825053;29;20058;-79
2021/12/21 02:30:37;;;;;;;;;;;-3.50;99.90;;;;;;4798760;29;20407;-78
2021/12/21 02:33:03;;;;;;;9.35;5.15;;;-3.50;99.90;;;;;;4825068;29;19927;-79
2021/12/21 02:35:28;;;;;;;9.35;4.60;;;-3.50;99.90;;;;;;4811584;29;20050;-79
2021/12/21 02:37:54;;;;;;;7.90;4.38;;;-3.50;99.90;;;;;;4824481;29;20727;-79
2021/12/21 02:40:20;;;;;;;9.07;5.13;;;-3.60;99.90;;;;;;4804283;29;20153;-79
2021/12/21 02:42:45;;;;;;;8.63;4.80;;;-3.50;99.90;;;;;;4819076;29;20043;-79
2021/12/21 02:45:11;;;;;;;8.40;4.28;;;-3.50;99.90;;;;;;4819216;29;20046;-79
2021/12/21 02:47:38;;;;;;;8.25;4.32;;;-3.50;99.90;;;;;;4818190;29;20101;-79
2021/12/21 02:50:04;;;;;;;7.20;4.05;;;-3.50;99.90;;;;;;4808555;29;20082;-78
2021/12/21 02:52:30;;;;;;;;;;;-3.50;99.90;;;;;;4824972;29;20114;-79
2021/12/21 02:54:55;;;;;;;9.38;4.40;;;-3.60;99.90;;;;;;4802699;29;19924;-79
2021/12/21 02:57:21;;;;;;;10.30;5.53;;;-3.50;99.90;;;;;;4816862;29;20595;-79
2021/12/21 02:59:47;;;;;;;8.43;4.55;;;-3.60;99.90;;;;;;4806625;29;20544;-79
2021/12/21 03:02:13;;;;;;;7.70;4.72;;;-3.70;99.90;;;;;;4821407;29;20042;-79
2021/12/21 03:04:43;;;;;;;9.13;5.10;;;-3.60;99.90;;;;;;4824582;29;20057;-79
2021/12/21 03:09:40;;;;;;;9.57;4.65;;;-3.70;99.90;;;;;;4843299;29;20050;-79
2021/12/21 03:14:50;;;;;;;8.20;4.57;;;-3.70;99.90;;;;;;4842647;29;20056;-78
2021/12/21 03:17:16;;;;;;;7.03;4.00;;;-3.80;99.90;;;;;;4819423;29;20034;-78
2021/12/21 03:19:42;;;;;;;8.18;4.28;;;-3.80;99.90;;;;;;4811605;29;20079;-78
2021/12/21 03:22:10;;;;;;;8.45;4.45;;;-3.80;99.90;;;;;;4861418;29;20121;-78
2021/12/21 03:24:36;;;;;;;7.43;4.70;;;-3.80;99.90;;;;;;4842062;29;20088;-78
2021/12/21 03:27:03;;;;;;;9.85;5.15;;;-3.80;99.90;;;;;;4830737;29;20089;-78
2021/12/21 03:29:29;;;;;;;9.23;4.50;;;-3.80;99.90;;;;;;4830850;29;20467;-78
2021/12/21 03:31:55;;;;;;;9.43;5.13;;;-3.90;99.90;;;;;;4845211;29;20496;-78
2021/12/21 03:34:22;;;;;;;11.35;5.93;;;-3.90;99.90;;;;;;4813795;29;20045;-78
2021/12/21 03:36:48;;;;;;;8.38;4.40;;;-3.90;99.90;;;;;;4830422;29;20072;-78
2021/12/21 03:39:18;;;;;;;7.50;4.40;;;-3.90;99.90;;;;;;4813314;29;20042;-78
2021/12/21 03:41:49;;;;;;;8.00;4.00;;;-3.90;99.90;;;;;;4841248;29;20071;-79
2021/12/21 03:44:17;;;;;;;7.35;4.20;;;-3.90;99.90;;;;;;4843846;29;20523;-78
2021/12/21 03:46:49;;;;;;;7.13;4.20;;;-3.90;99.90;;;;;;4844824;29;20053;-78
2021/12/21 03:51:59;;;;;;;8.77;4.50;;;-3.80;99.90;;;;;;4842693;29;20164;-78
2021/12/21 03:54:24;;;;;;;9.10;4.72;;;-3.90;99.90;;;;;;4820033;29;20065;-78
2021/12/21 03:56:51;;;;;;;8.95;5.03;;;-3.90;99.90;;;;;;4818899;29;20518;-79
2021/12/21 03:59:19;;;;;;;7.60;4.50;;;-3.90;99.90;;;;;;4837018;29;20384;-80
2021/12/21 04:01:45;;;;;;;7.53;3.88;;;-3.90;99.90;;;;;;4836000;29;20113;-80
2021/12/21 04:04:11;;;;;;;8.15;4.22;;;-3.90;99.90;;;;;;4813037;29;20045;-79
2021/12/21 04:06:37;;;;;;;7.25;3.85;;;-3.90;99.90;;;;;;4809439;29;20515;-79
2021/12/21 04:09:05;;;;;;;8.82;4.80;;;-4.00;99.90;;;;;;4812640;29;20579;-79
2021/12/21 04:11:31;;;;;;;7.50;4.47;;;-4.00;99.90;;;;;;4845749;29;20410;-79
2021/12/21 04:13:58;;;;;;;7.35;4.15;;;-4.00;99.90;;;;;;4846159;29;20046;-79
2021/12/21 04:16:23;;;;;;;;;;;-4.00;99.90;;;;;;4842607;29;20048;-79
2021/12/21 04:18:49;;;;;;;7.32;3.63;;;-4.10;99.90;;;;;;4810270;29;20002;-80
2021/12/21 04:21:15;;;;;;;8.27;4.78;;;-4.00;99.90;;;;;;4819847;29;20106;-79
2021/12/21 04:23:41;;;;;;;8.30;4.70;;;-4.00;99.90;;;;;;4826620;29;20105;-79
2021/12/21 04:26:08;;;;;;;;;;;-4.00;99.90;;;;;;4846735;29;20052;-79
2021/12/21 04:28:34;;;;;;;9.20;4.33;;;-4.00;99.90;;;;;;4832296;29;19920;-79
2021/12/21 04:31:00;;;;;;;7.78;4.13;;;-4.00;99.90;;;;;;4841649;29;20128;-79
2021/12/21 04:33:26;;;;;;;7.18;3.92;;;-4.00;99.90;;;;;;4830725;29;20041;-79
2021/12/21 04:35:52;;;;;;;6.22;3.70;;;-4.00;99.90;;;;;;4819759;29;20037;-79
2021/12/21 04:38:22;;;;;;;7.68;3.67;;;-4.00;99.90;;;;;;4830967;29;20875;-79
2021/12/21 04:41:05;;;;;;;8.32;3.67;;;-4.00;99.90;;;;;;4808424;29;20134;-80
2021/12/21 04:43:31;;;;;;;6.65;3.70;;;-4.00;99.90;;;;;;4842070;29;20041;-79
2021/12/21 04:45:56;;;;;;;6.75;3.88;;;-4.00;99.90;;;;;;4821950;29;20045;-79
2021/12/21 04:48:22;;;;;;;5.80;3.50;;;-4.00;99.90;;;;;;4812766;29;20119;-79
2021/12/21 04:50:48;;;;;;;5.90;3.40;;;-4.00;99.90;;;;;;4836967;29;20041;-79
2021/12/21 04:53:15;;;;;;;6.32;3.63;;;-4.00;99.90;;;;;;4834746;29;20083;-79
2021/12/21 04:55:40;;;;;;;5.68;2.97;;;-3.90;99.90;;;;;;4841018;29;20041;-79
2021/12/21 04:58:07;;;;;;;6.18;3.00;;;-4.00;99.90;;;;;;4841187;29;20041;-79
2021/12/21 05:00:33;;;;;;;6.65;3.70;;;-4.00;99.90;;;;;;4829309;29;20137;-79
2021/12/21 05:02:59;;;;;;;5.68;3.10;;;-4.00;99.90;;;;;;4832407;29;20058;-79
2021/12/21 05:05:25;;;;;;;4.82;3.00;;;-4.00;99.90;;;;;;4831206;29;20062;-79
2021/12/21 05:08:04;;;;;;;4.00;2.35;;;-4.00;99.90;;;;;;4811229;29;20057;-80
2021/12/21 05:10:31;;;;;;;6.47;3.40;;;-4.00;99.90;;;;;;4826721;29;20057;-79
2021/12/21 05:12:56;;;;;;;5.95;3.42;;;-4.00;99.90;;;;;;4823038;29;20045;-79
2021/12/21 05:15:22;;;;;;;5.43;3.60;;;-4.00;99.90;;;;;;4819240;29;20041;-79
2021/12/21 05:17:48;;;;;;;6.57;3.58;;;-4.00;99.90;;;;;;4857779;29;20054;-79
2021/12/21 05:20:13;;;;;;;5.75;3.40;;;-4.10;99.90;;;;;;4859483;29;20415;-79
2021/12/21 05:22:39;;;;;;;5.63;3.22;;;-4.10;99.90;;;;;;4824463;29;20074;-79
2021/12/21 05:25:05;;;;;;;4.55;2.72;;;-4.10;99.90;;;;;;4841672;29;20042;-79
2021/12/21 05:27:31;;;;;;;5.07;2.58;;;-4.10;99.90;;;;;;4844169;29;20059;-79
2021/12/21 05:29:57;;;;;;;5.95;2.63;;;-4.10;99.90;;;;;;4825110;29;20120;-80
2021/12/21 05:32:23;;;;;;;5.50;3.25;;;-4.10;99.90;;;;;;4811189;29;20128;-80
2021/12/21 05:34:48;;;;;;;6.03;2.92;;;-4.20;99.90;;;;;;4825083;29;20052;-79
2021/12/21 05:37:14;;;;;;;5.05;3.20;;;-4.20;99.90;;;;;;4843783;29;20129;-79
2021/12/21 05:40:09;;;;;;;5.47;2.78;;;-4.20;99.90;;;;;;4837756;29;20117;-79
2021/12/21 05:42:28;;;;;;;9.20;3.75;;;-4.20;99.90;;;;;;4826930;29;20128;-79
2021/12/21 05:44:54;;;;;;;7.55;3.33;;;-4.10;99.90;;;;;;4841428;29;20188;-80
2021/12/21 05:47:19;;;;;;;5.53;2.80;;;-4.00;99.90;;;;;;4843744;29;20056;-80
2021/12/21 05:49:46;;;;;;;4.88;2.80;;;-4.00;99.90;;;;;;4812093;29;20041;-80
2021/12/21 05:52:11;;;;;;;4.30;2.53;;;-4.00;99.90;;;;;;4819284;29;20049;-80
2021/12/21 05:54:37;;;;;;;6.30;3.00;;;-4.00;99.90;;;;;;4827940;29;20052;-79
2021/12/21 05:57:04;;;;;;;4.90;2.38;;;-4.10;99.90;;;;;;4821992;29;20046;-80
2021/12/21 05:59:30;;;;;;;5.53;2.50;;;-4.10;99.90;;;;;;4827747;29;20042;-79
2021/12/21 06:01:55;;;;;;;4.50;2.30;;;-4.10;99.90;;;;;;4809332;29;20034;-79
2021/12/21 06:04:21;;;;;;;3.95;2.50;;;-4.10;99.90;;;;;;4830141;29;20648;-79
2021/12/21 06:06:47;;;;;;;3.40;1.83;;;-4.20;99.90;;;;;;4818996;29;20065;-79
2021/12/21 06:09:14;;;;;;;4.45;2.67;;;-4.20;99.90;;;;;;4857224;29;20114;-79
2021/12/21 06:12:10;;;;;;;4.88;2.88;;;-4.20;99.90;;;;;;4837085;29;20140;-79
2021/12/21 06:15:15;;;;;;;4.97;2.70;;;-4.20;99.90;;;;;;4835430;29;20053;-79
2021/12/21 06:25:38;;;;;;;5.40;2.95;;;-4.30;99.90;;;;;;4843065;29;20145;-79
2021/12/21 06:28:07;;;;;;;4.68;2.75;;;-4.30;99.90;;;;;;4840906;29;20499;-79
2021/12/21 06:30:35;;;;;;;6.05;3.10;;;-4.20;99.90;;;;;;4827637;29;20495;-79
2021/12/21 06:33:01;;;;;;;7.25;3.30;;;-4.20;99.90;;;;;;4842909;29;20045;-79
2021/12/21 06:35:27;;;;;;;6.68;3.40;;;-4.20;99.90;;;;;;4812039;29;20040;-79
2021/12/21 06:37:53;;;;;;;6.25;3.22;;;-4.20;99.90;;;;;;4823073;29;20494;-80
2021/12/21 06:40:23;;;;;;;5.75;2.80;;;-4.20;99.90;;;;;;4802725;29;20041;-79
2021/12/21 06:42:50;;;;;;;6.43;3.70;;;-4.20;99.90;;;;;;4827291;29;20037;-79
2021/12/21 06:45:28;;;;;;;6.70;4.00;;;-4.20;99.90;;;;;;4841632;29;20046;-79
2021/12/21 06:53:25;;;;;;;6.05;2.67;;;-4.30;99.90;;;;;;4838457;29;20444;-81
2021/12/21 06:55:50;;;;;;;6.07;2.90;;;-4.30;99.90;;;;;;4828329;29;20123;-80
2021/12/21 06:58:16;;;;;;;3.85;2.47;;;-4.30;99.90;;;;;;4816028;29;20488;-80
2021/12/21 07:00:43;;;;;;;5.43;2.70;;;-4.40;99.90;;;;;;4842419;29;20484;-79
2021/12/21 07:03:13;;;;;;;5.20;2.70;;;-4.40;99.90;;;;;;4828713;29;20045;-87
2021/12/21 07:05:40;;;;;;;3.95;2.53;;;-4.40;99.90;;;;;;4820935;29;20072;-80
2021/12/21 07:08:14;;;;;;;6.38;3.25;;;-4.40;99.90;;;;;;4819951;29;20045;-79
2021/12/21 07:10:41;;;;;;;4.68;2.78;;;-4.40;99.90;;;;;;4837724;29;20046;-80
2021/12/21 07:18:36;;;;;;;3.83;2.45;;;-4.40;99.90;;;;;;4828776;29;20060;-77
2021/12/21 07:21:02;;;;;;;4.32;2.78;;;-4.40;99.90;;;;;;4838834;29;20054;-78
2021/12/21 07:23:30;;;;;;;5.57;2.70;;;-4.40;99.90;;;;;;4854788;29;20809;-77
2021/12/21 07:25:56;;;;;;;5.25;2.85;;;-4.50;99.90;;;;;;4835807;29;20165;-77
2021/12/21 07:28:22;;;;;;;3.75;2.55;;;-4.40;99.90;;;;;;4820455;29;20070;-77
2021/12/21 07:30:48;;;;;;;3.50;2.30;;;-4.40;99.90;;;;;;4820462;29;20133;-78
2021/12/21 07:33:17;;;;;;;4.57;2.33;;;-4.40;99.90;;;;;;4840330;29;20050;-77
2021/12/21 07:35:43;;;;;;;3.85;2.35;;;-4.50;99.90;;;;;;4828941;29;20156;-78
2021/12/21 07:38:10;;;;;;;4.38;2.30;;;-4.50;99.90;;;;;;4822093;29;20076;-78
2021/12/21 07:40:37;;;;;;;4.07;2.42;;;-4.50;99.90;;;;;;4823076;29;20042;-78
2021/12/21 07:43:03;;;;;;;2.90;2.05;;;-4.50;99.90;;;;;;4842393;29;20125;-79
2021/12/21 07:45:29;;;;;;;3.65;2.22;;;-4.40;99.90;;;;;;4840263;29;20099;-78
2021/12/21 07:47:55;;;;;;;3.08;2.00;;;-4.40;99.90;;;;;;4822760;29;20077;-78
2021/12/21 07:50:21;;;;;;;3.15;1.75;;;-4.40;99.90;;;;;;4824597;29;20081;-79
2021/12/21 07:52:47;;;;;;;2.45;1.35;;;-4.30;99.90;;;;;;4832151;29;20372;-81
2021/12/21 07:55:13;;;;;;;3.33;1.90;;;-4.20;99.90;;;;;;4828189;29;20137;-80
2021/12/21 07:57:39;;;;;;;2.80;1.48;;;-4.20;99.90;;;;;;4843051;29;20105;-80
2021/12/21 08:00:07;;;;;;;3.33;1.65;;;-4.20;99.90;;;;;;4829942;29;20052;-80
2021/12/21 08:02:33;;;;;;;2.97;1.75;;;-4.20;99.90;;;;;;4829848;29;20471;-80
2021/12/21 08:05:04;;;;;;;4.05;2.05;;;-4.10;99.90;;;;;;4813445;29;20300;-80
2021/12/21 08:07:34;;;;;;;4.22;2.40;;;-4.10;99.90;;;;;;4830316;29;20122;-81
2021/12/21 08:10:16;;;;;;;4.50;2.25;;;-4.00;99.90;;;;;;4830499;29;20696;-80
2021/12/21 08:12:42;;;;;;;4.22;2.05;;;-4.00;99.90;;;;;;4845422;29;20053;-80
2021/12/21 08:15:09;;;;;;;2.90;1.88;;;-4.10;99.90;;;;;;4829667;29;20049;-80
2021/12/21 08:17:35;;;;;;;;;;;-4.10;99.90;;;;;;4829813;29;20519;-80
2021/12/21 08:20:00;;;;;;;3.17;2.17;;;-4.10;99.90;;;;;;4844496;29;20019;-78
2021/12/21 08:22:26;;;;;;;3.38;2.15;;;-4.10;99.90;;;;;;4815196;29;20045;-79
2021/12/21 08:24:52;;;;;;;3.13;2.10;;;-4.10;99.90;;;;;;4829822;29;20384;-80
2021/12/21 08:27:17;;;;;;;3.33;2.08;;;-4.00;99.90;;;;;;4845179;29;20073;-80
2021/12/21 08:29:43;;;;;;;3.75;2.25;;;-4.00;99.90;;;;;;4845332;29;20089;-81
2021/12/21 08:32:09;;;;;;;3.88;2.42;;;-3.90;99.90;;;;;;4833741;29;20045;-81
2021/12/21 08:34:35;;;;;;;3.95;2.55;;;-4.00;99.90;;;;;;4824464;29;20405;-80
2021/12/21 08:37:01;;;;;;;3.95;2.65;;;-3.90;99.90;;;;;;4819237;29;20041;-80
2021/12/21 08:39:30;;;;;;;3.75;2.75;;;-3.80;99.90;;;;;;4829843;29;20037;-79
2021/12/21 08:41:58;;;;;;;5.57;3.92;;;-3.70;99.90;;;;;;4841643;29;20454;-79
2021/12/21 08:44:25;;;;;;;7.63;3.72;;;-3.70;99.90;;;;;;4814971;29;20049;-81
2021/12/21 08:46:52;;;;;;;6.65;4.13;;;-3.60;99.90;;;;;;4827230;29;20073;-79
2021/12/21 08:49:19;;;;;;;6.43;4.25;;;-3.60;99.90;;;;;;4805651;29;20408;-80
2021/12/21 08:51:44;;;;;;;5.47;3.97;;;-3.60;99.90;;;;;;4829419;29;20037;-80
2021/12/21 08:54:11;;;;;;;7.25;3.92;;;-3.50;99.90;;;;;;4820450;29;20125;-80
2021/12/21 08:56:37;;;;;;;5.50;4.00;;;-3.50;99.90;;;;;;4812987;29;20065;-80
2021/12/21 08:59:02;;;;;;;5.90;4.05;;;-3.50;99.90;;;;;;4844822;29;20381;-80
2021/12/21 09:01:28;;;;;;;6.43;3.88;;;-3.40;99.90;;;;;;4844041;29;20045;-80
2021/12/21 09:03:55;;;;;;;5.13;3.63;;;-3.40;99.90;;;;;;4799728;29;20124;-82
2021/12/21 09:06:21;;;;;;;5.38;3.70;;;-3.40;99.90;;;;;;4826390;29;20133;-81
2021/12/21 09:08:47;;;;;;;4.50;3.53;;;-3.30;99.90;;;;;;4829517;29;20061;-81
2021/12/21 09:11:12;;;;;;;4.47;3.13;;;-3.30;99.90;;;;;;4800246;29;20524;-81
2021/12/21 09:13:38;;;;;;;4.13;3.28;;;-3.30;99.90;;;;;;4841646;29;20053;-81
2021/12/21 09:16:04;;;;;;;4.40;2.75;;;-3.20;99.90;;;;;;4813375;29;20025;-81
2021/12/21 09:18:30;;;;;;;3.20;2.10;;;-3.20;99.90;;;;;;4854024;29;20100;-80
2021/12/21 09:20:56;;;;;;;3.55;2.20;;;-3.00;99.90;;;;;;4809773;29;20042;-79
2021/12/21 09:23:22;;;;;;;3.28;2.10;;;-2.90;99.90;;;;;;4835412;29;20069;-80
2021/12/21 09:25:48;;;;;;;3.20;1.92;;;-2.80;99.90;;;;;;4814000;29;20428;-80
2021/12/21 09:28:14;;;;;;;3.00;1.90;;;-2.70;99.90;;;;;;4843339;29;20042;-80
2021/12/21 09:30:40;;;;;;;2.35;1.98;;;-2.60;99.90;;;;;;4824683;29;20177;-80
2021/12/21 09:33:05;;;;;;;2.85;2.00;;;-2.50;99.90;;;;;;4810812;29;20037;-80
2021/12/21 09:35:31;;;;;;;3.58;2.60;;;-2.40;99.90;;;;;;4820790;29;20046;-80
2021/12/21 09:37:57;;;;;;;3.90;1.95;;;-2.30;99.90;;;;;;4808412;29;20077;-80
2021/12/21 09:40:30;;;;;;;3.25;2.17;;;-2.30;99.90;;;;;;4817181;29;20150;-79
2021/12/21 09:42:57;;;;;;;4.15;2.50;;;-2.20;99.90;;;;;;4843752;29;20495;-79
2021/12/21 09:45:23;;;;;;;5.45;3.80;;;-2.00;99.90;;;;;;4825163;29;20045;-79
2021/12/21 09:47:50;;;;;;;5.32;3.88;;;-2.00;99.90;;;;;;4831805;29;20054;-79
2021/12/21 09:50:18;;;;;;;6.32;4.72;;;-1.80;99.90;;;;;;4830018;29;20457;-80
2021/12/21 09:52:44;;;;;;;5.45;4.20;;;-1.70;99.90;;;;;;4825582;29;20053;-79
2021/12/21 09:55:13;;;;;;;5.20;4.03;;;-1.60;99.90;;;;;;4825882;29;20092;-79
2021/12/21 09:57:39;;;;;;;6.38;4.32;;;-1.60;99.90;;;;;;4810151;29;20488;-79
2021/12/21 10:00:09;;;;;;;5.53;4.22;;;-1.50;99.90;;;;;;4825620;29;20046;-79
2021/12/21 10:02:35;;;;;;;6.20;4.30;;;-1.40;99.90;;;;;;4842288;29;20045;-78
2021/12/21 10:05:06;;;;;;;4.22;3.22;;;-1.30;99.90;;;;;;4812670;29;20526;-78
2021/12/21 10:07:34;;;;;;;6.07;4.40;;;-1.20;99.90;;;;;;4827749;29;20053;-78
2021/12/21 10:10:18;;;;;;;7.57;4.40;;;-1.10;99.90;;;;;;4806574;29;20106;-79
2021/12/21 10:12:46;;;;;;;6.45;4.28;;;-1.00;99.90;;;;;;4828397;29;20049;-79
2021/12/21 10:15:19;;;;;;;6.10;4.35;;;-0.90;99.90;;;;;;4843221;29;20046;-78
2021/12/21 10:17:57;;;;;;;6.15;3.47;;;-0.80;99.90;;;;;;4836571;29;20399;-78
2021/12/21 10:20:44;;;;;;;5.72;4.10;;;-0.80;99.90;;;;;;4861834;29;20051;-79
2021/12/21 10:23:17;;;;;;;5.75;4.32;;;-0.60;99.90;;;;;;4835257;29;20052;-79
2021/12/21 10:26:11;;;;;;;6.72;4.60;;;-0.50;99.90;;;;;;4843750;29;20037;-79
2021/12/21 10:28:42;;;;;;;10.05;6.13;;;-0.40;99.90;;;;;;4839189;29;20149;-79
2021/12/21 10:31:12;;;;;;;8.85;5.22;;;-0.30;99.90;;;;;;4827282;29;20060;-79
2021/12/21 10:33:43;;;;;;;8.18;5.35;;;-0.20;99.90;;;;;;4841771;29;20072;-79
2021/12/21 10:36:10;;;;;;;7.00;4.60;;;-0.20;99.90;;;;;;4843249;29;20121;-79
2021/12/21 10:38:43;;;;;;;6.32;3.67;;;-0.10;99.90;;;;;;4843154;29;20038;-79
2021/12/21 10:41:13;;;;;;;7.43;4.35;;;0.00;99.90;;;;;;4830976;29;20467;-80
2021/12/21 10:43:39;;;;;;;8.77;5.00;;;0.10;99.90;;;;;;4838861;29;20046;-79
2021/12/21 10:46:06;;;;;;;7.63;4.50;;;0.20;99.90;;;;;;4823734;29;20402;-79
2021/12/21 10:48:35;;;;;;;;;;;0.40;99.90;;;;;;4829298;29;20045;-80
2021/12/21 10:51:01;;;;;;;7.88;5.60;;;0.60;99.90;;;;;;4829198;29;19920;-79
2021/12/21 10:53:28;;;;;;;7.25;4.95;;;0.70;99.90;;;;;;4835488;29;20101;-80
2021/12/21 10:56:05;;;;;;;8.57;5.50;;;0.70;99.90;;;;;;4828196;29;20038;-79
2021/12/21 10:58:32;;;;;;;10.30;5.40;;;0.90;99.90;;;;;;4826244;29;20049;-80
2021/12/21 11:00:59;;;;;;;;;;;1.10;99.90;;;;;;4844326;29;20049;-80
2021/12/21 11:03:44;;;;;;;6.65;4.55;;;1.50;99.90;;;;;;4842791;29;19959;-79
2021/12/21 11:06:16;;;;;;;7.05;4.50;;;1.60;99.90;;;;;;4835614;29;20100;-79
2021/12/21 11:08:48;;;;;;;9.18;5.20;;;1.90;99.90;;;;;;4825358;29;20037;-79
2021/12/21 11:11:27;;;;;;;9.07;5.22;;;2.30;99.90;;;;;;4818979;29;20054;-79
2021/12/21 11:14:14;;;;;;;10.98;6.28;;;2.60;99.90;;;;;;4824415;29;20129;-80
2021/12/21 11:16:44;;;;;;;7.50;5.60;;;2.80;99.90;;;;;;4824914;29;20057;-80
2021/12/21 11:19:16;;;;;;;8.52;5.47;;;3.10;99.90;;;;;;4806984;29;20099;-80
2021/12/21 11:21:43;;;;;;;8.55;6.47;;;3.30;99.90;;;;;;4792700;29;20392;-79
2021/12/21 11:24:17;;;;;;;9.88;6.57;;;3.70;99.90;;;;;;4822216;29;20054;-80
2021/12/21 11:26:45;;;;;;;9.98;6.32;;;3.90;99.90;;;;;;4810646;29;20045;-80
2021/12/21 11:29:15;;;;;;;11.65;7.25;;;4.30;99.90;;;;;;4809724;29;20477;-81
2021/12/21 11:31:47;;;;;;;9.73;6.85;;;4.50;99.90;;;;;;4826807;29;20084;-80
2021/12/21 11:34:19;;;;;;;10.40;6.68;;;4.60;99.90;;;;;;4821033;29;20038;-79
2021/12/21 11:39:33;;;;;;;11.40;6.30;;;5.10;99.90;;;;;;4823134;29;20042;-81
2021/12/21 11:42:01;;;;;;;7.97;6.07;;;5.00;99.90;;;;;;4817325;29;20452;-80
2021/12/21 11:44:37;;;;;;;10.57;6.05;;;5.10;99.90;;;;;;4824585;29;20043;-81
2021/12/21 11:47:07;;;;;;;8.67;5.70;;;5.10;99.90;;;;;;4826040;29;20038;-81
2021/12/21 11:49:54;;;;;;;10.10;6.18;;;5.10;99.90;;;;;;4824341;29;20046;-79
2021/12/21 11:52:23;;;;;;;11.52;5.90;;;5.30;99.90;;;;;;4811853;29;20495;-83
2021/12/21 11:54:53;;;;;;;7.82;4.72;;;5.40;99.90;;;;;;4815466;29;20058;-79
2021/12/21 11:57:32;;;;;;;6.72;4.50;;;5.30;99.90;;;;;;4809842;29;20134;-81
2021/12/21 12:00:13;;;;;;;10.00;5.60;;;5.30;99.90;;;;;;4806089;29;20047;-80
2021/12/21 12:02:40;;;;;;;8.63;5.30;;;5.30;99.90;;;;;;4813597;29;20041;-80
2021/12/21 12:05:29;;;;;;;8.38;5.30;;;5.10;99.90;;;;;;4804998;29;20054;-77
2021/12/21 12:08:13;;;;;;;8.25;5.57;;;4.90;99.90;;;;;;4862086;29;20109;-79
2021/12/21 12:10:50;;;;;;;7.13;4.95;;;4.80;99.90;;;;;;4812084;29;20480;-80
2021/12/21 12:13:43;;;;;;;7.18;4.72;;;4.80;99.90;;;;;;4839893;29;20041;-81
2021/12/21 12:16:13;;;;;;;6.57;4.20;;;4.60;99.90;;;;;;4838716;29;20050;-81
2021/12/21 12:18:50;;;;;;;12.10;8.90;;;4.70;99.90;;;;;;4830585;29;20116;-80
2021/12/21 12:21:18;;;;;;;9.95;6.40;;;4.60;99.90;;;;;;4829299;29;20044;-82
2021/12/21 12:23:55;;;;;;;7.88;4.47;;;4.50;99.90;;;;;;4842808;29;20484;-79
2021/12/21 12:26:21;;;;;;;9.10;4.20;;;4.70;99.90;;;;;;4841416;29;20481;-78
2021/12/21 12:28:47;;;;;;;10.43;5.30;;;4.70;99.90;;;;;;4829554;29;20041;-79
2021/12/21 12:31:26;;;;;;;7.65;4.30;;;4.80;99.90;;;;;;4828237;29;20665;-79
2021/12/21 12:33:52;;;;;;;7.55;4.60;;;4.90;99.90;;;;;;4840984;29;20078;-77
2021/12/21 12:36:18;;;;;;;6.47;4.10;;;4.90;99.90;;;;;;4840391;29;20044;-79
2021/12/21 12:38:47;;;;;;;7.97;4.20;;;4.90;99.90;;;;;;4826481;29;20125;-79
2021/12/21 12:41:14;;;;;;;8.15;3.78;;;4.90;99.90;;;;;;4838234;29;20451;-79
2021/12/21 12:43:44;;;;;;;6.45;3.75;;;4.90;99.90;;;;;;4823567;29;20038;-79
2021/12/21 12:46:23;;;;;;;7.88;4.40;;;4.80;99.90;;;;;;4838948;29;20131;-79
2021/12/21 12:48:49;;;;;;;8.10;4.07;;;4.70;99.90;;;;;;4839595;29;20050;-82
2021/12/21 12:51:36;;;;;;;6.70;3.83;;;4.60;99.90;;;;;;4814576;29;20375;-81
2021/12/21 12:54:22;;;;;;;7.93;3.63;;;4.50;99.90;;;;;;4827770;29;20414;-80
2021/12/21 12:56:49;;;;;;;7.40;3.70;;;4.40;99.90;;;;;;4824410;29;20069;-86
2021/12/21 12:59:16;;;;;;;7.18;3.72;;;4.40;99.90;;;;;;4843867;29;20046;-78
2021/12/21 13:01:43;;;;;;;;;;;4.40;99.90;;;;;;4843751;29;20046;-80
2021/12/21 13:04:11;;;;;;;6.57;3.33;;;4.40;99.90;;;;;;4843682;29;19972;-80
2021/12/21 13:06:41;;;;;;;7.70;3.20;;;4.50;99.90;;;;;;4842388;29;20118;-85
2021/12/21 13:09:12;;;;;;;6.70;3.67;;;4.60;99.90;;;;;;4845171;29;20059;-80
2021/12/21 13:11:40;;;;;;;8.63;3.50;;;4.70;99.90;;;;;;4840200;29;20564;-84
2021/12/21 13:14:09;;;;;;;9.77;3.78;;;4.70;99.90;;;;;;4846975;29;20045;-81
2021/12/21 13:16:37;;;;;;;7.43;3.47;;;4.60;99.90;;;;;;4843827;29;20060;-81
2021/12/21 13:19:14;;;;;;;4.70;3.13;;;4.60;99.90;;;;;;4829480;29;20057;-81
2021/12/21 13:21:47;;;;;;;;;;;4.70;99.90;;;;;;4841918;29;20046;-82
2021/12/21 13:24:19;;;;;;;7.68;3.03;;;4.70;99.90;;;;;;4825706;29;19920;-81
2021/12/21 13:26:51;;;;;;;6.55;3.00;;;4.70;99.90;;;;;;4826396;29;20068;-83
2021/12/21 13:29:21;;;;;;;5.35;3.00;;;4.70;99.90;;;;;;4823891;29;20045;-82
2021/12/21 13:31:50;;;;;;;5.65;2.97;;;4.70;99.90;;;;;;4829796;29;20076;-82
2021/12/21 13:34:17;;;;;;;5.75;2.85;;;4.80;99.90;;;;;;4814416;29;20057;-82
2021/12/21 13:36:45;;;;;;;4.38;2.72;;;4.80;99.90;;;;;;4817144;29;20451;-87
2021/12/21 13:39:21;;;;;;;6.68;2.70;;;4.80;99.90;;;;;;4829315;29;20045;-82
2021/12/21 13:41:56;;;;;;;4.45;2.40;;;4.90;99.90;;;;;;4825936;29;20104;-83
2021/12/21 13:44:28;;;;;;;6.97;2.80;;;5.00;99.90;;;;;;4841659;29;20053;-83
2021/12/21 13:47:00;;;;;;;4.03;2.35;;;4.90;99.90;;;;;;4844086;29;20056;-83
2021/12/21 13:49:26;;;;;;;6.38;2.70;;;4.90;99.90;;;;;;4828658;29;20136;-82
2021/12/21 13:51:55;;;;;;;4.03;2.55;;;4.80;99.90;;;;;;4844027;29;20086;-82
2021/12/21 13:54:21;;;;;;;4.75;2.75;;;4.80;99.90;;;;;;4841695;29;20061;-81
2021/12/21 13:56:48;;;;;;;4.05;2.13;;;4.70;99.90;;;;;;4808896;29;20105;-82
2021/12/21 13:59:19;;;;;;;3.20;2.20;;;4.60;99.90;;;;;;4856850;29;20753;-81
2021/12/21 14:01:53;;;;;;;3.35;1.80;;;4.50;99.90;;;;;;4817102;29;20080;-81